Terminal Aerodrome Forecast
Issued by NWS Cleveland, OH

Home | Current Version | Previous Version | Graphics & Text | Print | Product List | Glossary Off
Versions: 1 2 3 4 5 6 7 8 9 10 11 12 13 14 15 16 17

290
FTUS41 KCLE 191135
TAFMFD
TAF
KMFD 191135Z 1912/2012 16005KT P6SM OVC050
      TEMPO 1916/1920 -SHRA BKN025
     FM200000 18005KT P6SM BKN070
     FM200600 VRB03KT P6SM BKN030=

USA.gov is the U.S. government's official web portal to all federal, state and local government web resources and services.